createdAt,value
2023-02-06T00:00:23.590Z,20.60
2023-02-06T00:03:15.912Z,31.10
2023-02-06T00:05:56.947Z,31.70
2023-02-06T00:08:29.877Z,24.30
2023-02-06T00:11:07.505Z,28.40
2023-02-06T00:13:40.312Z,34.90
2023-02-06T00:16:20.051Z,33.10
2023-02-06T00:18:53.117Z,37.80
2023-02-06T00:21:27.258Z,40.30
2023-02-06T00:24:02.352Z,32.50
2023-02-06T00:26:35.380Z,32.50
2023-02-06T00:29:08.226Z,31.70
2023-02-06T00:31:41.142Z,24.90
2023-02-06T00:34:13.515Z,24.20
2023-02-06T00:36:45.959Z,23.20
2023-02-06T00:39:19.564Z,17.90
2023-02-06T00:41:51.936Z,21.60
2023-02-06T00:44:24.632Z,22.30
2023-02-06T00:46:58.968Z,19.20
2023-02-06T00:49:31.220Z,26.00
2023-02-06T00:52:03.607Z,37.00
2023-02-06T00:54:35.863Z,31.70
2023-02-06T00:57:08.063Z,31.00
2023-02-06T00:59:40.323Z,26.70
2023-02-06T01:02:12.554Z,39.70
2023-02-06T01:04:44.942Z,24.20
2023-02-06T01:07:17.324Z,14.90
2023-02-06T01:09:49.784Z,13.00
2023-02-06T01:12:22.467Z,15.00
2023-02-06T01:14:54.936Z,10.00
2023-02-06T01:17:27.185Z,11.10
2023-02-06T01:19:59.687Z,9.90
2023-02-06T01:22:34.135Z,9.10
2023-02-06T01:25:07.710Z,10.80
2023-02-06T01:27:41.009Z,10.30
2023-02-06T01:30:15.328Z,12.00
2023-02-06T01:32:47.734Z,15.60
2023-02-06T01:35:21.404Z,16.50
2023-02-06T01:37:53.980Z,24.00
2023-02-06T01:40:26.567Z,23.30
2023-02-06T01:42:58.854Z,31.20
2023-02-06T01:45:41.378Z,28.60
2023-02-06T01:48:19.550Z,31.30
2023-02-06T01:50:55.293Z,29.00
2023-02-06T01:53:28.798Z,23.20
2023-02-06T01:56:04.647Z,22.60
2023-02-06T01:58:40.095Z,23.00
2023-02-06T02:01:13.086Z,24.40
2023-02-06T02:03:46.817Z,30.40
2023-02-06T02:06:24.008Z,28.40
2023-02-06T02:08:58.464Z,30.90
2023-02-06T02:11:35.198Z,30.30
2023-02-06T02:14:11.577Z,26.90
2023-02-06T02:16:54.463Z,24.20
2023-02-06T02:20:07.719Z,20.30
2023-02-06T02:22:56.993Z,19.60
2023-02-06T02:26:15.730Z,18.50
2023-02-06T02:29:26.000Z,22.00
2023-02-06T02:32:28.792Z,18.90
2023-02-06T02:35:25.525Z,15.30
2023-02-06T02:38:07.424Z,16.70
2023-02-06T02:40:48.846Z,16.70
2023-02-06T02:43:36.151Z,17.50
2023-02-06T02:46:15.458Z,18.50
2023-02-06T02:48:52.132Z,20.50
2023-02-06T02:51:24.864Z,19.10
2023-02-06T02:53:58.934Z,17.00
2023-02-06T02:56:33.653Z,16.10
2023-02-06T02:59:10.043Z,16.00
2023-02-06T03:01:46.908Z,16.70
2023-02-06T03:04:24.182Z,18.80
2023-02-06T03:07:23.641Z,17.00
2023-02-06T03:10:05.078Z,18.30
2023-02-06T03:12:45.504Z,20.60
2023-02-06T03:15:26.413Z,20.50
2023-02-06T03:18:05.377Z,23.70
2023-02-06T03:20:42.119Z,24.90
2023-02-06T03:23:18.343Z,18.90
2023-02-06T03:28:32.450Z,23.40
2023-02-06T03:31:07.229Z,31.40
2023-02-06T03:33:43.470Z,39.70
2023-02-06T03:36:17.461Z,36.50
2023-02-06T03:38:52.242Z,34.30
2023-02-06T03:41:28.859Z,34.40
2023-02-06T03:44:02.757Z,32.60
2023-02-06T03:46:36.059Z,36.50
2023-02-06T03:49:12.884Z,53.70
2023-02-06T03:51:48.839Z,45.10
2023-02-06T03:54:25.610Z,44.90
2023-02-06T03:57:01.070Z,29.20
2023-02-06T03:59:34.147Z,26.20
2023-02-06T04:02:07.263Z,24.50
2023-02-06T04:04:41.571Z,27.20
2023-02-06T04:07:18.166Z,37.50
2023-02-06T04:09:50.850Z,30.00
2023-02-06T04:12:23.705Z,32.70
2023-02-06T04:14:56.550Z,28.90
2023-02-06T04:17:46.385Z,35.00
2023-02-06T04:20:21.781Z,35.30
2023-02-06T04:22:54.687Z,33.20
2023-02-06T04:25:27.240Z,33.50
2023-02-06T04:27:59.437Z,26.10
2023-02-06T04:30:31.549Z,29.40
2023-02-06T04:33:03.769Z,34.40
2023-02-06T04:35:36.396Z,33.70
2023-02-06T04:38:08.628Z,45.20
2023-02-06T04:40:40.856Z,49.30
2023-02-06T04:43:13.564Z,44.90
2023-02-06T04:45:45.621Z,33.70
2023-02-06T04:48:17.715Z,33.10
2023-02-06T04:50:50.205Z,29.90
2023-02-06T04:53:22.572Z,34.70
2023-02-06T04:55:56.459Z,29.60
2023-02-06T04:58:28.925Z,32.90
2023-02-06T05:01:01.665Z,30.60
2023-02-06T05:03:34.455Z,32.80
2023-02-06T05:06:07.982Z,34.60
2023-02-06T05:08:40.394Z,30.20
2023-02-06T05:11:12.825Z,32.50
2023-02-06T05:13:45.617Z,28.50
2023-02-06T05:16:19.834Z,25.90
2023-02-06T05:18:56.737Z,20.90
2023-02-06T05:21:29.103Z,24.00
2023-02-06T05:24:01.238Z,22.00
2023-02-06T05:26:33.417Z,29.40
2023-02-06T05:29:05.604Z,23.70
2023-02-06T05:31:38.742Z,24.20
2023-02-06T05:34:12.437Z,26.20
2023-02-06T05:36:44.575Z,27.70
2023-02-06T05:39:16.732Z,29.80
2023-02-06T05:41:49.294Z,34.40
2023-02-06T05:44:21.465Z,34.10
2023-02-06T05:46:53.635Z,27.60
2023-02-06T05:49:25.905Z,35.80
2023-02-06T05:51:58.301Z,34.60
2023-02-06T05:54:30.545Z,25.70
2023-02-06T05:57:02.948Z,28.20
2023-02-06T05:59:35.310Z,24.80
2023-02-06T06:02:07.875Z,28.90
2023-02-06T06:04:40.303Z,28.90
2023-02-06T06:07:13.741Z,35.50
2023-02-06T06:09:46.228Z,26.90
2023-02-06T06:12:18.727Z,24.60
2023-02-06T06:14:50.893Z,22.80
2023-02-06T06:17:24.271Z,21.70
2023-02-06T06:19:57.264Z,23.40
2023-02-06T06:22:30.041Z,25.70
2023-02-06T06:25:02.503Z,26.30
2023-02-06T06:27:34.893Z,25.60
2023-02-06T06:30:09.004Z,27.10
2023-02-06T06:32:41.682Z,24.00
2023-02-06T06:35:14.149Z,26.20
2023-02-06T06:37:46.637Z,21.00
2023-02-06T06:40:19.232Z,27.10
2023-02-06T06:42:51.537Z,28.50
2023-02-06T06:45:24.232Z,30.70
2023-02-06T06:47:56.354Z,30.50
2023-02-06T06:50:28.529Z,49.90
2023-02-06T06:53:00.662Z,66.70
2023-02-06T06:55:32.910Z,116.70
2023-02-06T06:58:05.372Z,113.50
2023-02-06T07:00:38.721Z,94.90
2023-02-06T07:03:11.884Z,76.00
2023-02-06T07:05:52.975Z,56.20
2023-02-06T07:08:30.084Z,58.70
2023-02-06T07:11:03.592Z,52.30
2023-02-06T07:13:35.834Z,50.10
2023-02-06T07:16:09.700Z,42.50
2023-02-06T07:21:20.016Z,48.90
2023-02-06T07:23:52.249Z,56.40
2023-02-06T07:26:24.873Z,52.10
2023-02-06T07:28:57.749Z,79.70
2023-02-06T07:31:31.025Z,132.10
2023-02-06T07:34:04.214Z,114.60
2023-02-06T07:36:37.534Z,85.60
2023-02-06T07:39:09.810Z,76.30
2023-02-06T07:41:43.016Z,63.60
2023-02-06T07:44:18.655Z,51.50
2023-02-06T07:46:52.912Z,68.20
2023-02-06T07:49:25.507Z,59.70
2023-02-06T07:51:58.040Z,59.50
2023-02-06T07:54:31.417Z,47.90
2023-02-06T07:57:03.794Z,46.20
2023-02-06T07:59:36.204Z,51.40
2023-02-06T08:02:10.808Z,45.30
2023-02-06T08:04:44.186Z,39.50
2023-02-06T08:07:23.287Z,40.30
2023-02-06T08:09:56.205Z,41.00
2023-02-06T08:12:30.443Z,41.30
2023-02-06T08:15:02.789Z,33.10
2023-02-06T08:17:34.996Z,33.60
2023-02-06T08:20:07.673Z,33.90
2023-02-06T08:22:39.852Z,31.80
2023-02-06T08:25:12.312Z,33.30
2023-02-06T08:27:44.661Z,36.90
2023-02-06T08:30:17.677Z,34.80
2023-02-06T08:32:50.571Z,38.60
2023-02-06T08:35:23.692Z,40.50
2023-02-06T08:37:56.006Z,39.30
2023-02-06T08:40:28.210Z,41.50
2023-02-06T08:43:00.894Z,44.00
2023-02-06T08:45:33.690Z,39.30
2023-02-06T08:48:07.871Z,49.30
2023-02-06T08:50:40.291Z,45.70
2023-02-06T08:53:12.817Z,48.40
2023-02-06T08:55:45.192Z,50.30
2023-02-06T08:58:24.117Z,45.70
2023-02-06T09:00:58.427Z,43.90
2023-02-06T09:03:31.650Z,30.90
2023-02-06T09:06:10.119Z,24.60
2023-02-06T09:08:43.773Z,59.00
2023-02-06T09:11:18.709Z,59.90
2023-02-06T09:13:51.758Z,25.10
2023-02-06T09:16:25.198Z,24.70
2023-02-06T09:19:01.528Z,24.10
2023-02-06T09:24:12.823Z,18.60
2023-02-06T09:26:59.016Z,21.50
2023-02-06T09:29:33.885Z,157.90
2023-02-06T09:32:06.363Z,24.90
2023-02-06T09:34:39.106Z,17.30
2023-02-06T09:37:11.388Z,60.90
2023-02-06T09:39:51.314Z,51.30
2023-02-06T09:42:32.801Z,24.70
2023-02-06T09:45:14.016Z,20.00
2023-02-06T09:47:51.736Z,20.30
2023-02-06T09:50:31.829Z,21.90
2023-02-06T09:53:18.385Z,20.00
2023-02-06T09:55:56.945Z,22.50
2023-02-06T09:58:43.077Z,21.40
2023-02-06T10:01:22.041Z,22.80
2023-02-06T10:04:14.102Z,18.80
2023-02-06T10:06:55.299Z,22.20
2023-02-06T10:09:36.815Z,27.40
2023-02-06T10:12:15.942Z,24.40
2023-02-06T10:14:52.174Z,23.10
2023-02-06T10:20:01.631Z,26.80
2023-02-06T10:22:41.713Z,27.80
2023-02-06T10:25:26.206Z,35.80
2023-02-06T10:28:03.983Z,30.50
2023-02-06T10:30:50.851Z,31.30
2023-02-06T10:33:34.033Z,38.10
2023-02-06T10:36:12.652Z,43.20
2023-02-06T10:39:07.935Z,42.50
2023-02-06T10:41:50.246Z,45.40
2023-02-06T10:44:29.420Z,38.20
2023-02-06T10:47:02.142Z,37.30
2023-02-06T10:49:40.123Z,36.00
2023-02-06T10:52:23.779Z,38.60
2023-02-06T10:55:00.011Z,35.50
2023-02-06T10:57:33.912Z,30.90
2023-02-06T11:00:17.186Z,33.90
2023-02-06T11:03:06.879Z,31.20
2023-02-06T11:05:41.623Z,29.30
2023-02-06T11:08:21.678Z,29.80
2023-02-06T11:10:54.171Z,28.90
2023-02-06T11:13:30.871Z,26.70
2023-02-06T11:16:08.380Z,28.20
2023-02-06T11:18:45.088Z,26.50
2023-02-06T11:21:38.544Z,24.80
2023-02-06T11:24:15.566Z,26.90
2023-02-06T11:26:51.741Z,28.60
2023-02-06T11:29:33.038Z,25.00
2023-02-06T11:32:08.553Z,22.60
2023-02-06T11:34:52.040Z,20.70
2023-02-06T11:37:37.994Z,22.40
2023-02-06T11:40:29.480Z,25.00
2023-02-06T11:43:19.440Z,24.50
2023-02-06T11:46:07.033Z,21.20
2023-02-06T11:48:41.780Z,28.30
2023-02-06T11:51:15.076Z,21.60
2023-02-06T11:54:01.971Z,19.80
2023-02-06T11:56:36.222Z,18.60
2023-02-06T11:59:23.551Z,19.60
2023-02-06T12:01:57.116Z,22.10
2023-02-06T12:04:35.934Z,21.40
2023-02-06T12:07:15.628Z,23.00
2023-02-06T12:09:48.330Z,25.90
2023-02-06T12:12:30.245Z,23.50
2023-02-06T12:15:36.148Z,26.70
2023-02-06T12:18:23.461Z,34.70
2023-02-06T12:21:01.847Z,27.00
2023-02-06T12:23:40.615Z,25.30
2023-02-06T12:26:17.511Z,24.50
2023-02-06T12:28:59.108Z,24.20
2023-02-06T12:31:38.285Z,27.20
2023-02-06T12:34:18.598Z,19.20
2023-02-06T12:37:09.319Z,20.50
2023-02-06T12:39:43.243Z,16.20
2023-02-06T12:42:36.367Z,18.80
2023-02-06T12:45:31.941Z,19.20
2023-02-06T12:48:13.980Z,16.40
2023-02-06T12:50:52.875Z,27.30
2023-02-06T12:53:30.762Z,45.60
2023-02-06T12:56:07.595Z,34.30
2023-02-06T12:59:04.833Z,41.60
2023-02-06T13:01:52.248Z,18.00
2023-02-06T13:04:27.619Z,19.10
2023-02-06T13:07:06.828Z,32.30
2023-02-06T13:09:42.871Z,20.60
2023-02-06T13:12:21.047Z,26.10
2023-02-06T13:14:56.830Z,22.60
2023-02-06T13:17:34.606Z,23.50
2023-02-06T13:20:14.562Z,20.20
2023-02-06T13:22:50.465Z,28.10
2023-02-06T13:25:54.834Z,22.90
2023-02-06T13:28:58.306Z,23.50
2023-02-06T13:31:34.628Z,29.30
2023-02-06T13:34:17.299Z,24.80
2023-02-06T13:36:55.325Z,32.20
2023-02-06T13:39:34.951Z,21.70
2023-02-06T13:42:43.048Z,55.00
2023-02-06T13:45:23.643Z,40.00
2023-02-06T13:48:37.143Z,313.50
2023-02-06T13:51:24.913Z,44.90
2023-02-06T13:54:42.232Z,38.90
2023-02-06T13:57:29.563Z,21.20
2023-02-06T14:00:12.066Z,23.90
2023-02-06T14:02:48.924Z,35.60
2023-02-06T14:05:25.091Z,35.20
2023-02-06T14:08:07.494Z,32.70
2023-02-06T14:11:06.352Z,24.40
2023-02-06T14:14:01.681Z,23.30
2023-02-06T14:16:49.638Z,25.60
2023-02-06T14:19:33.564Z,41.20
2023-02-06T14:22:19.196Z,29.10
2023-02-06T14:25:15.146Z,31.30
2023-02-06T14:28:01.961Z,35.50
2023-02-06T14:30:44.273Z,33.40
2023-02-06T14:33:44.226Z,31.80
2023-02-06T14:36:32.565Z,25.30
2023-02-06T14:42:13.519Z,29.10
2023-02-06T14:44:50.700Z,37.60
2023-02-06T14:47:27.344Z,40.50
2023-02-06T14:50:01.898Z,38.70
2023-02-06T14:52:35.827Z,31.90
2023-02-06T14:55:36.764Z,36.30
2023-02-06T14:58:20.125Z,38.20
2023-02-06T15:00:52.704Z,26.80
2023-02-06T15:03:26.943Z,26.90
2023-02-06T15:06:22.158Z,56.20
2023-02-06T15:08:55.219Z,42.90
2023-02-06T15:11:32.887Z,26.80
2023-02-06T15:14:09.194Z,29.10
2023-02-06T15:16:51.094Z,33.40
2023-02-06T15:19:25.636Z,29.50
2023-02-06T15:22:02.336Z,31.60
2023-02-06T15:24:51.297Z,61.20
2023-02-06T15:27:30.041Z,75.70
2023-02-06T15:30:04.807Z,75.80
2023-02-06T15:32:45.180Z,74.10
2023-02-06T15:35:25.315Z,71.90
2023-02-06T15:38:03.893Z,71.40
2023-02-06T15:40:42.389Z,66.50
2023-02-06T15:43:17.354Z,74.30
2023-02-06T15:45:51.784Z,75.50
2023-02-06T15:48:29.442Z,76.10
2023-02-06T15:51:03.887Z,73.00
2023-02-06T15:53:39.841Z,42.10
2023-02-06T15:56:23.151Z,39.40
2023-02-06T15:59:01.579Z,51.40
2023-02-06T16:01:37.363Z,48.70
2023-02-06T16:04:14.633Z,34.60
2023-02-06T16:06:48.406Z,37.10
2023-02-06T16:09:23.778Z,53.60
2023-02-06T16:11:58.308Z,58.90
2023-02-06T16:14:36.616Z,54.00
2023-02-06T16:17:26.702Z,59.90
2023-02-06T16:20:03.091Z,64.20
2023-02-06T16:25:22.885Z,109.50
2023-02-06T16:27:55.737Z,116.70
2023-02-06T16:30:30.986Z,115.10
2023-02-06T16:33:20.211Z,119.00
2023-02-06T16:35:53.049Z,111.60
2023-02-06T16:38:25.368Z,144.00
2023-02-06T16:40:58.068Z,172.60
2023-02-06T16:43:33.087Z,178.80
2023-02-06T16:46:05.471Z,189.20
2023-02-06T16:48:38.470Z,211.20
2023-02-06T16:51:13.677Z,193.50
2023-02-06T16:53:48.363Z,173.90
2023-02-06T16:56:22.720Z,164.30
2023-02-06T16:58:54.955Z,168.80
2023-02-06T17:01:29.851Z,171.60
2023-02-06T17:04:02.197Z,188.00
2023-02-06T17:06:36.975Z,164.40
2023-02-06T17:09:14.454Z,156.30
2023-02-06T17:11:46.728Z,168.40
2023-02-06T17:14:19.067Z,250.00
2023-02-06T17:16:51.643Z,514.00
2023-02-06T17:19:26.264Z,776.00
2023-02-06T17:21:58.787Z,1008.20
2023-02-06T17:24:31.150Z,1160.10
2023-02-06T17:27:03.737Z,1100.50
2023-02-06T17:29:36.338Z,1216.50
2023-02-06T17:32:09.447Z,977.30
2023-02-06T17:34:41.668Z,816.60
2023-02-06T17:37:20.975Z,737.80
2023-02-06T17:39:54.393Z,845.00
2023-02-06T17:42:26.823Z,572.70
2023-02-06T17:44:59.194Z,519.00
2023-02-06T17:47:31.642Z,529.90
2023-02-06T17:50:04.078Z,482.50
2023-02-06T17:52:36.372Z,460.70
2023-02-06T17:55:10.474Z,452.30
2023-02-06T17:57:43.046Z,507.70
2023-02-06T18:00:18.660Z,479.80
2023-02-06T18:02:51.848Z,418.90
2023-02-06T18:05:25.064Z,332.20
2023-02-06T18:07:57.067Z,369.50
2023-02-06T18:10:29.340Z,447.90
2023-02-06T18:13:01.562Z,454.00
2023-02-06T18:15:33.684Z,440.10
2023-02-06T18:18:06.005Z,419.70
2023-02-06T18:20:40.491Z,432.00
2023-02-06T18:23:14.681Z,376.60
2023-02-06T18:25:47.234Z,302.80
2023-02-06T18:28:20.160Z,243.80
2023-02-06T18:30:52.454Z,198.70
2023-02-06T18:33:24.809Z,144.40
2023-02-06T18:35:57.541Z,196.50
2023-02-06T18:38:29.813Z,262.70
2023-02-06T18:41:05.914Z,334.90
2023-02-06T18:43:38.201Z,201.30
2023-02-06T18:46:11.289Z,149.70
2023-02-06T18:48:44.196Z,110.60
2023-02-06T18:51:16.278Z,97.10
2023-02-06T18:53:48.554Z,89.80
2023-02-06T18:56:21.171Z,77.40
2023-02-06T18:58:53.319Z,86.70
2023-02-06T19:01:27.325Z,96.70
2023-02-06T19:04:00.857Z,130.00
2023-02-06T19:06:36.776Z,101.40
2023-02-06T19:09:09.933Z,102.20
2023-02-06T19:11:43.568Z,115.30
2023-02-06T19:14:18.446Z,112.50
2023-02-06T19:16:52.974Z,129.70
2023-02-06T19:19:24.962Z,124.10
2023-02-06T19:21:58.073Z,114.20
2023-02-06T19:24:31.122Z,93.30
2023-02-06T19:27:03.261Z,88.70
2023-02-06T19:29:36.698Z,98.10
2023-02-06T19:32:10.282Z,90.50
2023-02-06T19:34:45.335Z,87.10
2023-02-06T19:37:17.510Z,82.70
2023-02-06T19:39:50.014Z,99.30
2023-02-06T19:42:22.315Z,94.90
2023-02-06T19:44:55.936Z,82.80
2023-02-06T19:47:28.087Z,80.20
2023-02-06T19:50:00.323Z,92.40
2023-02-06T19:52:32.974Z,95.00
2023-02-06T19:55:05.375Z,96.60
2023-02-06T19:57:39.704Z,86.00
2023-02-06T20:00:14.273Z,116.40
2023-02-06T20:02:47.434Z,104.50
2023-02-06T20:05:26.080Z,137.40
2023-02-06T20:07:58.143Z,133.20
2023-02-06T20:10:30.549Z,110.70
2023-02-06T20:13:03.086Z,99.80
2023-02-06T20:15:40.460Z,86.80
2023-02-06T20:18:12.839Z,79.90
2023-02-06T20:20:47.249Z,81.60
2023-02-06T20:23:19.601Z,103.50
2023-02-06T20:25:52.000Z,116.70
2023-02-06T20:28:24.784Z,164.50
2023-02-06T20:30:57.390Z,222.00
2023-02-06T20:33:29.863Z,186.50
2023-02-06T20:36:08.164Z,167.90
2023-02-06T20:38:40.488Z,141.30
2023-02-06T20:41:13.081Z,164.90
2023-02-06T20:43:47.816Z,153.80
2023-02-06T20:46:21.783Z,185.30
2023-02-06T20:48:58.956Z,287.10
2023-02-06T20:51:32.143Z,331.20
2023-02-06T20:54:04.511Z,310.20
2023-02-06T20:56:36.818Z,253.80
2023-02-06T20:59:09.791Z,215.10
2023-02-06T21:01:42.737Z,210.50
2023-02-06T21:04:16.432Z,211.30
2023-02-06T21:06:50.228Z,166.30
2023-02-06T21:09:22.554Z,97.10
2023-02-06T21:11:54.911Z,68.90
2023-02-06T21:14:30.071Z,82.40
2023-02-06T21:17:02.394Z,68.50
2023-02-06T21:19:34.477Z,72.00
2023-02-06T21:22:06.834Z,72.80
2023-02-06T21:24:39.096Z,72.90
2023-02-06T21:27:11.180Z,72.40
2023-02-06T21:29:43.276Z,76.40
2023-02-06T21:32:15.798Z,85.30
2023-02-06T21:34:48.500Z,75.20
2023-02-06T21:37:22.803Z,79.90
2023-02-06T21:39:54.885Z,81.20
2023-02-06T21:42:27.648Z,84.60
2023-02-06T21:44:59.823Z,82.00
2023-02-06T21:47:32.048Z,86.80
2023-02-06T21:50:04.369Z,76.60
2023-02-06T21:52:38.891Z,89.80
2023-02-06T21:55:11.797Z,88.20
2023-02-06T21:57:43.987Z,87.10
2023-02-06T22:00:18.949Z,84.10
2023-02-06T22:02:51.286Z,90.00
2023-02-06T22:05:24.655Z,97.90
2023-02-06T22:07:58.520Z,100.60
2023-02-06T22:10:30.841Z,110.60
2023-02-06T22:13:03.012Z,103.60
2023-02-06T22:15:35.827Z,100.50
2023-02-06T22:18:10.410Z,104.80
2023-02-06T22:20:42.600Z,87.30
2023-02-06T22:23:14.808Z,132.10
2023-02-06T22:25:50.467Z,192.80
2023-02-06T22:28:22.598Z,251.00
2023-02-06T22:30:54.791Z,222.50
2023-02-06T22:33:27.003Z,214.40
2023-02-06T22:35:59.345Z,154.40
2023-02-06T22:38:31.467Z,145.90
2023-02-06T22:41:06.281Z,111.00
2023-02-06T22:43:39.811Z,117.30
2023-02-06T22:46:22.346Z,112.10
2023-02-06T22:48:55.416Z,135.60
2023-02-06T22:51:28.055Z,147.30
2023-02-06T22:54:00.725Z,149.70
2023-02-06T22:56:36.985Z,140.90
2023-02-06T22:59:11.888Z,148.20
2023-02-06T23:01:46.308Z,170.60
2023-02-06T23:04:20.532Z,153.60
2023-02-06T23:06:53.666Z,153.00
2023-02-06T23:09:31.056Z,174.00
2023-02-06T23:12:04.277Z,193.00
2023-02-06T23:14:36.664Z,156.70
2023-02-06T23:17:08.821Z,172.20
2023-02-06T23:19:41.279Z,150.60
2023-02-06T23:22:13.470Z,154.00
2023-02-06T23:24:45.664Z,130.80
2023-02-06T23:27:19.817Z,131.00
2023-02-06T23:29:51.986Z,118.90
2023-02-06T23:32:24.147Z,125.50
2023-02-06T23:34:59.705Z,111.00
2023-02-06T23:37:32.023Z,112.00
2023-02-06T23:40:05.570Z,104.70
2023-02-06T23:42:38.766Z,89.20
2023-02-06T23:45:11.814Z,81.20
2023-02-06T23:47:44.012Z,78.30
2023-02-06T23:50:16.643Z,81.70
2023-02-06T23:52:48.786Z,83.20
2023-02-06T23:55:25.053Z,92.70
2023-02-06T23:57:57.775Z,109.10
